sensor_id;sensor_type;location;lat;lon;timestamp;pressure;altitude;pressure_sealevel;temperature
53667;BMP280;39568;51.026;5.468;2023-07-28T00:00:35;99735.59;;;17.61
53667;BMP280;39568;51.026;5.468;2023-07-28T00:03:04;99735.59;;;17.61
53667;BMP280;39568;51.026;5.468;2023-07-28T00:05:31;99731.47;;;17.60
53667;BMP280;39568;51.026;5.468;2023-07-28T00:07:58;99731.59;;;17.62
53667;BMP280;39568;51.026;5.468;2023-07-28T00:10:26;99735.72;;;17.63
53667;BMP280;39568;51.026;5.468;2023-07-28T00:12:52;99742.06;;;17.58
53667;BMP280;39568;51.026;5.468;2023-07-28T00:15:19;99736.69;;;17.58
53667;BMP280;39568;51.026;5.468;2023-07-28T00:17:46;99732.75;;;17.59
53667;BMP280;39568;51.026;5.468;2023-07-28T00:20:12;99731.59;;;17.62
53667;BMP280;39568;51.026;5.468;2023-07-28T00:22:39;99733.34;;;17.67
53667;BMP280;39568;51.026;5.468;2023-07-28T00:25:06;99726.13;;;17.70
53667;BMP280;39568;51.026;5.468;2023-07-28T00:27:34;99725.13;;;17.65
53667;BMP280;39568;51.026;5.468;2023-07-28T00:30:01;99716.41;;;17.75
53667;BMP280;39568;51.026;5.468;2023-07-28T00:32:28;99717.91;;;17.68
53667;BMP280;39568;51.026;5.468;2023-07-28T00:34:54;99725.94;;;17.58
53667;BMP280;39568;51.026;5.468;2023-07-28T00:37:21;99722.28;;;17.63
53667;BMP280;39568;51.026;5.468;2023-07-28T00:39:48;99720.59;;;17.68
53667;BMP280;39568;51.026;5.468;2023-07-28T00:42:14;99720.94;;;17.72
53667;BMP280;39568;51.026;5.468;2023-07-28T00:44:42;99716.41;;;17.75
53667;BMP280;39568;51.026;5.468;2023-07-28T00:47:09;99732.34;;;17.72
53667;BMP280;39568;51.026;5.468;2023-07-28T00:49:36;99721.78;;;17.75
53667;BMP280;39568;51.026;5.468;2023-07-28T00:52:06;99720.03;;;17.69
53667;BMP280;39568;51.026;5.468;2023-07-28T00:54:33;99717.25;;;17.77
53667;BMP280;39568;51.026;5.468;2023-07-28T00:57:01;99721.06;;;17.74
53667;BMP280;39568;51.026;5.468;2023-07-28T00:59:28;99720.03;;;17.69
53667;BMP280;39568;51.026;5.468;2023-07-28T01:01:57;99720.94;;;17.72
53667;BMP280;39568;51.026;5.468;2023-07-28T01:04:23;99721.78;;;17.75
53667;BMP280;39568;51.026;5.468;2023-07-28T01:06:55;99713.69;;;17.75
53667;BMP280;39568;51.026;5.468;2023-07-28T01:09:29;99722.00;;;17.69
53667;BMP280;39568;51.026;5.468;2023-07-28T01:11:56;99721.19;;;17.66
53667;BMP280;39568;51.026;5.468;2023-07-28T01:14:23;99724.00;;;17.68
53667;BMP280;39568;51.026;5.468;2023-07-28T01:16:50;99725.69;;;17.64
53667;BMP280;39568;51.026;5.468;2023-07-28T01:19:20;99724.41;;;17.65
53667;BMP280;39568;51.026;5.468;2023-07-28T01:22:01;99735.28;;;17.57
53667;BMP280;39568;51.026;5.468;2023-07-28T01:24:37;99727.38;;;17.59
53667;BMP280;39568;51.026;5.468;2023-07-28T01:27:10;99730.88;;;17.52
53667;BMP280;39568;51.026;5.468;2023-07-28T01:29:37;99732.03;;;17.59
53667;BMP280;39568;51.026;5.468;2023-07-28T01:32:05;99730.91;;;17.62
53667;BMP280;39568;51.026;5.468;2023-07-28T01:34:31;99732.44;;;17.55
53667;BMP280;39568;51.026;5.468;2023-07-28T01:36:58;99727.50;;;17.61
53667;BMP280;39568;51.026;5.468;2023-07-28T01:39:25;99716.75;;;17.61
53667;BMP280;39568;51.026;5.468;2023-07-28T01:41:51;99720.84;;;17.62
53667;BMP280;39568;51.026;5.468;2023-07-28T01:44:19;99712.94;;;17.64
53667;BMP280;39568;51.026;5.468;2023-07-28T01:46:46;99720.56;;;17.58
53667;BMP280;39568;51.026;5.468;2023-07-28T01:49:13;99715.16;;;17.58
53667;BMP280;39568;51.026;5.468;2023-07-28T01:51:39;99719.75;;;17.65
53667;BMP280;39568;51.026;5.468;2023-07-28T01:54:06;99720.31;;;17.64
53667;BMP280;39568;51.026;5.468;2023-07-28T01:56:33;99710.81;;;17.63
53667;BMP280;39568;51.026;5.468;2023-07-28T01:58:59;99722.28;;;17.63
53667;BMP280;39568;51.026;5.468;2023-07-28T02:01:27;99719.75;;;17.65
53667;BMP280;39568;51.026;5.468;2023-07-28T02:03:54;99720.84;;;17.62
53667;BMP280;39568;51.026;5.468;2023-07-28T02:06:21;99719.59;;;17.63
53667;BMP280;39568;51.026;5.468;2023-07-28T02:08:46;99721.13;;;17.57
53667;BMP280;39568;51.026;5.468;2023-07-28T02:11:13;99725.28;;;17.67
53667;BMP280;39568;51.026;5.468;2023-07-28T02:13:40;99718.78;;;17.70
53667;BMP280;39568;51.026;5.468;2023-07-28T02:16:06;99721.19;;;17.66
53667;BMP280;39568;51.026;5.468;2023-07-28T02:18:34;99721.19;;;17.66
53667;BMP280;39568;51.026;5.468;2023-07-28T02:21:01;99717.47;;;17.62
53667;BMP280;39568;51.026;5.468;2023-07-28T02:23:28;99716.63;;;17.69
53667;BMP280;39568;51.026;5.468;2023-07-28T02:25:55;99722.72;;;17.69
53667;BMP280;39568;51.026;5.468;2023-07-28T02:28:22;99721.88;;;17.67
53667;BMP280;39568;51.026;5.468;2023-07-28T02:30:48;99721.47;;;17.70
53667;BMP280;39568;51.026;5.468;2023-07-28T02:33:15;99729.00;;;17.72
53667;BMP280;39568;51.026;5.468;2023-07-28T02:35:43;99731.09;;;17.73
53667;BMP280;39568;51.026;5.468;2023-07-28T02:38:10;99730.00;;;17.77
53667;BMP280;39568;51.026;5.468;2023-07-28T02:40:36;99732.53;;;17.75
53667;BMP280;39568;51.026;5.468;2023-07-28T02:43:03;99732.53;;;17.75
53667;BMP280;39568;51.026;5.468;2023-07-28T02:45:30;99728.28;;;17.72
53667;BMP280;39568;51.026;5.468;2023-07-28T02:47:56;99725.59;;;17.72
53667;BMP280;39568;51.026;5.468;2023-07-28T02:50:23;99727.41;;;17.69
53667;BMP280;39568;51.026;5.468;2023-07-28T02:52:51;99727.16;;;17.75
53667;BMP280;39568;51.026;5.468;2023-07-28T02:55:18;99726.44;;;17.74
53667;BMP280;39568;51.026;5.468;2023-07-28T02:57:44;99729.53;;;17.70
53667;BMP280;39568;51.026;5.468;2023-07-28T03:00:12;99737.91;;;17.75
53667;BMP280;39568;51.026;5.468;2023-07-28T03:02:39;99743.59;;;17.79
53667;BMP280;39568;51.026;5.468;2023-07-28T03:05:06;99744.72;;;17.76
53667;BMP280;39568;51.026;5.468;2023-07-28T03:07:33;99747.97;;;17.74
53667;BMP280;39568;51.026;5.468;2023-07-28T03:10:01;99748.69;;;17.75
53667;BMP280;39568;51.026;5.468;2023-07-28T03:12:28;99753.50;;;17.76
53667;BMP280;39568;51.026;5.468;2023-07-28T03:14:54;99756.75;;;17.75
53667;BMP280;39568;51.026;5.468;2023-07-28T03:17:21;99756.56;;;17.72
53667;BMP280;39568;51.026;5.468;2023-07-28T03:19:48;99746.53;;;17.73
53667;BMP280;39568;51.026;5.468;2023-07-28T03:22:14;99756.91;;;17.77
53667;BMP280;39568;51.026;5.468;2023-07-28T03:24:41;99768.03;;;17.73
53667;BMP280;39568;51.026;5.468;2023-07-28T03:27:09;99760.88;;;17.76
53667;BMP280;39568;51.026;5.468;2023-07-28T03:29:36;99754.22;;;17.77
53667;BMP280;39568;51.026;5.468;2023-07-28T03:32:03;99758.47;;;17.80
53667;BMP280;39568;51.026;5.468;2023-07-28T03:34:30;99763.00;;;17.77
53667;BMP280;39568;51.026;5.468;2023-07-28T03:36:56;99764.25;;;17.76
53667;BMP280;39568;51.026;5.468;2023-07-28T03:39:23;99766.56;;;17.80
53667;BMP280;39568;51.026;5.468;2023-07-28T03:41:50;99761.31;;;17.82
53667;BMP280;39568;51.026;5.468;2023-07-28T03:44:18;99767.97;;;17.81
53667;BMP280;39568;51.026;5.468;2023-07-28T03:46:44;99762.72;;;17.83
53667;BMP280;39568;51.026;5.468;2023-07-28T03:49:12;99762.56;;;17.81
53667;BMP280;39568;51.026;5.468;2023-07-28T03:51:38;99761.78;;;17.88
53667;BMP280;39568;51.026;5.468;2023-07-28T03:54:05;99768.41;;;17.87
53667;BMP280;39568;51.026;5.468;2023-07-28T03:56:32;99762.56;;;17.81
53667;BMP280;39568;51.026;5.468;2023-07-28T03:58:58;99768.09;;;17.83
53667;BMP280;39568;51.026;5.468;2023-07-28T04:01:26;99764.00;;;17.82
53667;BMP280;39568;51.026;5.468;2023-07-28T04:03:53;99762.56;;;17.81
53667;BMP280;39568;51.026;5.468;2023-07-28T04:06:39;99762.16;;;17.84
53667;BMP280;39568;51.026;5.468;2023-07-28T04:09:07;99763.59;;;17.85
53667;BMP280;39568;51.026;5.468;2023-07-28T04:11:34;99763.16;;;17.89
53667;BMP280;39568;51.026;5.468;2023-07-28T04:14:01;99760.03;;;17.83
53667;BMP280;39568;51.026;5.468;2023-07-28T04:16:29;99760.34;;;17.87
53667;BMP280;39568;51.026;5.468;2023-07-28T04:18:56;99759.06;;;17.88
53667;BMP280;39568;51.026;5.468;2023-07-28T04:21:22;99757.63;;;17.87
53667;BMP280;39568;51.026;5.468;2023-07-28T04:23:49;99749.91;;;17.91
53667;BMP280;39568;51.026;5.468;2023-07-28T04:26:17;99755.66;;;17.87
53667;BMP280;39568;51.026;5.468;2023-07-28T04:28:44;99755.53;;;17.85
53667;BMP280;39568;51.026;5.468;2023-07-28T04:31:11;99755.66;;;17.87
53667;BMP280;39568;51.026;5.468;2023-07-28T04:33:41;99761.06;;;17.87
53667;BMP280;39568;51.026;5.468;2023-07-28T04:36:07;99759.06;;;17.88
53667;BMP280;39568;51.026;5.468;2023-07-28T04:38:34;99769.28;;;17.89
53667;BMP280;39568;51.026;5.468;2023-07-28T04:41:01;99773.22;;;17.88
53667;BMP280;39568;51.026;5.468;2023-07-28T04:43:28;99772.69;;;17.90
53667;BMP280;39568;51.026;5.468;2023-07-28T04:45:55;99776.34;;;17.85
53667;BMP280;39568;51.026;5.468;2023-07-28T04:48:21;99779.31;;;17.89
53667;BMP280;39568;51.026;5.468;2023-07-28T04:50:49;99787.25;;;17.87
53667;BMP280;39568;51.026;5.468;2023-07-28T04:53:16;99788.81;;;17.90
53667;BMP280;39568;51.026;5.468;2023-07-28T04:55:43;99780.75;;;17.90
53667;BMP280;39568;51.026;5.468;2023-07-28T04:58:09;99784.28;;;17.92
53667;BMP280;39568;51.026;5.468;2023-07-28T05:00:36;99791.81;;;17.94
53667;BMP280;39568;51.026;5.468;2023-07-28T05:03:03;99797.91;;;17.94
53667;BMP280;39568;51.026;5.468;2023-07-28T05:05:30;99801.88;;;17.93
53667;BMP280;39568;51.026;5.468;2023-07-28T05:07:58;99792.34;;;17.92
53667;BMP280;39568;51.026;5.468;2023-07-28T05:10:24;99800.31;;;17.90
53667;BMP280;39568;51.026;5.468;2023-07-28T05:12:51;99807.53;;;17.97
53667;BMP280;39568;51.026;5.468;2023-07-28T05:15:18;99799.34;;;17.95
53667;BMP280;39568;51.026;5.468;2023-07-28T05:17:44;99816.88;;;17.96
53667;BMP280;39568;51.026;5.468;2023-07-28T05:20:11;99807.84;;;18.01
53667;BMP280;39568;51.026;5.468;2023-07-28T05:22:38;99814.81;;;18.04
53667;BMP280;39568;51.026;5.468;2023-07-28T05:25:07;99814.09;;;18.04
53667;BMP280;39568;51.026;5.468;2023-07-28T05:27:34;99814.66;;;18.02
53667;BMP280;39568;51.026;5.468;2023-07-28T05:30:01;99816.94;;;18.06
53667;BMP280;39568;51.026;5.468;2023-07-28T05:32:27;99821.06;;;18.07
53667;BMP280;39568;51.026;5.468;2023-07-28T05:34:54;99820.91;;;18.05
53667;BMP280;39568;51.026;5.468;2023-07-28T05:37:20;99824.84;;;18.04
53667;BMP280;39568;51.026;5.468;2023-07-28T05:39:47;99827.56;;;18.04
53667;BMP280;39568;51.026;5.468;2023-07-28T05:42:16;99821.88;;;18.00
53667;BMP280;39568;51.026;5.468;2023-07-28T05:44:42;99835.09;;;18.05
53667;BMP280;39568;51.026;5.468;2023-07-28T05:47:09;99834.25;;;18.12
53667;BMP280;39568;51.026;5.468;2023-07-28T05:49:36;99836.09;;;18.10
53667;BMP280;39568;51.026;5.468;2023-07-28T05:52:03;99836.72;;;18.18
53667;BMP280;39568;51.026;5.468;2023-07-28T05:54:30;99840.66;;;18.17
53667;BMP280;39568;51.026;5.468;2023-07-28T05:56:56;99840.34;;;18.13
53667;BMP280;39568;51.026;5.468;2023-07-28T05:59:24;99847.56;;;18.10
53667;BMP280;39568;51.026;5.468;2023-07-28T06:01:51;99844.59;;;18.16
53667;BMP280;39568;51.026;5.468;2023-07-28T06:04:18;99848.69;;;18.07
53667;BMP280;39568;51.026;5.468;2023-07-28T06:06:44;99841.59;;;18.12
53667;BMP280;39568;51.026;5.468;2023-07-28T06:09:11;99845.19;;;18.14
53667;BMP280;39568;51.026;5.468;2023-07-28T06:11:38;99835.44;;;18.19
53667;BMP280;39568;51.026;5.468;2023-07-28T06:14:04;99852.03;;;18.25
53667;BMP280;39568;51.026;5.468;2023-07-28T06:16:32;99853.59;;;18.28
53667;BMP280;39568;51.026;5.468;2023-07-28T06:18:59;99848.06;;;18.26
53667;BMP280;39568;51.026;5.468;2023-07-28T06:21:26;99849.91;;;18.23
53667;BMP280;39568;51.026;5.468;2023-07-28T06:23:52;99859.84;;;18.30
53667;BMP280;39568;51.026;5.468;2023-07-28T06:26:19;99847.09;;;18.31
53667;BMP280;39568;51.026;5.468;2023-07-28T06:28:46;99848.81;;;18.36
53667;BMP280;39568;51.026;5.468;2023-07-28T06:31:12;99844.16;;;18.36
53667;BMP280;39568;51.026;5.468;2023-07-28T06:33:40;99852.38;;;18.48
53667;BMP280;39568;51.026;5.468;2023-07-28T06:36:07;99862.06;;;18.51
53667;BMP280;39568;51.026;5.468;2023-07-28T06:38:34;99865.19;;;18.57
53667;BMP280;39568;51.026;5.468;2023-07-28T06:41:00;99869.16;;;18.56
53667;BMP280;39568;51.026;5.468;2023-07-28T06:43:27;99862.94;;;18.63
53667;BMP280;39568;51.026;5.468;2023-07-28T06:45:54;99869.34;;;18.68
53667;BMP280;39568;51.026;5.468;2023-07-28T06:48:21;99871.59;;;18.71
53667;BMP280;39568;51.026;5.468;2023-07-28T06:50:49;99874.19;;;18.79
53667;BMP280;39568;51.026;5.468;2023-07-28T06:53:16;99870.91;;;18.80
53667;BMP280;39568;51.026;5.468;2023-07-28T06:55:43;99874.06;;;18.86
53667;BMP280;39568;51.026;5.468;2023-07-28T06:58:10;99872.91;;;18.89
53667;BMP280;39568;51.026;5.468;2023-07-28T07:00:37;99879.44;;;18.86
53667;BMP280;39568;51.026;5.468;2023-07-28T07:03:04;99878.19;;;18.87
53667;BMP280;39568;51.026;5.468;2023-07-28T07:05:30;99886.13;;;18.95
53667;BMP280;39568;51.026;5.468;2023-07-28T07:07:58;99889.00;;;18.97
53667;BMP280;39568;51.026;5.468;2023-07-28T07:10:27;99893.81;;;19.08
53667;BMP280;39568;51.026;5.468;2023-07-28T07:12:53;99887.28;;;19.01
53667;BMP280;39568;51.026;5.468;2023-07-28T07:15:21;99894.53;;;19.18
53667;BMP280;39568;51.026;5.468;2023-07-28T07:17:48;99883.59;;;19.16
53667;BMP280;39568;51.026;5.468;2023-07-28T07:20:15;99883.88;;;19.29
53667;BMP280;39568;51.026;5.468;2023-07-28T07:22:42;99890.31;;;19.44
53667;BMP280;39568;51.026;5.468;2023-07-28T07:25:10;99891.66;;;19.64
53667;BMP280;39568;51.026;5.468;2023-07-28T07:27:36;99888.88;;;19.62
53667;BMP280;39568;51.026;5.468;2023-07-28T07:30:04;99891.13;;;19.75
53667;BMP280;39568;51.026;5.468;2023-07-28T07:32:32;99892.94;;;19.72
53667;BMP280;39568;51.026;5.468;2023-07-28T07:34:59;99901.72;;;19.92
53667;BMP280;39568;51.026;5.468;2023-07-28T07:37:26;99892.19;;;19.91
53667;BMP280;39568;51.026;5.468;2023-07-28T07:39:52;99892.19;;;19.91
53667;BMP280;39568;51.026;5.468;2023-07-28T07:42:21;99891.25;;;19.86
53667;BMP280;39568;51.026;5.468;2023-07-28T07:44:48;99899.47;;;19.88
53667;BMP280;39568;51.026;5.468;2023-07-28T07:47:15;99900.31;;;20.00
53667;BMP280;39568;51.026;5.468;2023-07-28T07:49:42;99905.63;;;20.20
53667;BMP280;39568;51.026;5.468;2023-07-28T07:52:09;99907.00;;;20.30
53667;BMP280;39568;51.026;5.468;2023-07-28T07:54:35;99895.56;;;20.51
53667;BMP280;39568;51.026;5.468;2023-07-28T07:57:02;99900.06;;;20.58
53667;BMP280;39568;51.026;5.468;2023-07-28T07:59:31;99893.81;;;20.65
53667;BMP280;39568;51.026;5.468;2023-07-28T08:01:58;99892.91;;;20.72
53667;BMP280;39568;51.026;5.468;2023-07-28T08:04:25;99893.38;;;20.59
53667;BMP280;39568;51.026;5.468;2023-07-28T08:06:53;99900.44;;;20.43
53667;BMP280;39568;51.026;5.468;2023-07-28T08:09:19;99890.69;;;20.49
53667;BMP280;39568;51.026;5.468;2023-07-28T08:11:47;99890.72;;;20.80
53667;BMP280;39568;51.026;5.468;2023-07-28T08:14:13;99893.75;;;20.95
53667;BMP280;39568;51.026;5.468;2023-07-28T08:16:42;99897.31;;;20.88
53667;BMP280;39568;51.026;5.468;2023-07-28T08:19:09;99892.69;;;20.79
53667;BMP280;39568;51.026;5.468;2023-07-28T08:21:35;99899.13;;;20.74
53667;BMP280;39568;51.026;5.468;2023-07-28T08:24:02;99889.28;;;20.79
53667;BMP280;39568;51.026;5.468;2023-07-28T08:26:29;99897.84;;;20.75
53667;BMP280;39568;51.026;5.468;2023-07-28T08:28:56;99900.22;;;20.81
53667;BMP280;39568;51.026;5.468;2023-07-28T08:31:23;99908.91;;;20.79
53667;BMP280;39568;51.026;5.468;2023-07-28T08:33:51;99904.22;;;20.80
53667;BMP280;39568;51.026;5.468;2023-07-28T08:36:17;99905.69;;;20.92
53667;BMP280;39568;51.026;5.468;2023-07-28T08:38:44;99915.38;;;20.95
53667;BMP280;39568;51.026;5.468;2023-07-28T08:41:11;99917.88;;;21.03
53667;BMP280;39568;51.026;5.468;2023-07-28T08:43:38;99920.25;;;21.30
53667;BMP280;39568;51.026;5.468;2023-07-28T08:46:05;99919.75;;;21.22
53667;BMP280;39568;51.026;5.468;2023-07-28T08:48:32;99917.59;;;21.20
53667;BMP280;39568;51.026;5.468;2023-07-28T08:51:00;99930.44;;;21.52
53667;BMP280;39568;51.026;5.468;2023-07-28T08:53:26;99926.66;;;21.46
53667;BMP280;39568;51.026;5.468;2023-07-28T08:55:53;99928.72;;;21.36
53667;BMP280;39568;51.026;5.468;2023-07-28T08:58:21;99921.66;;;20.88
53667;BMP280;39568;51.026;5.468;2023-07-28T09:00:49;99929.03;;;20.67
53667;BMP280;39568;51.026;5.468;2023-07-28T09:03:16;99926.63;;;20.61
53667;BMP280;39568;51.026;5.468;2023-07-28T09:05:43;99930.66;;;20.60
53667;BMP280;39568;51.026;5.468;2023-07-28T09:08:13;99936.84;;;20.72
53667;BMP280;39568;51.026;5.468;2023-07-28T09:10:40;99929.53;;;21.06
53667;BMP280;39568;51.026;5.468;2023-07-28T09:13:09;99937.13;;;21.51
53667;BMP280;39568;51.026;5.468;2023-07-28T09:15:36;99929.28;;;21.67
53667;BMP280;39568;51.026;5.468;2023-07-28T09:18:03;99937.50;;;21.25
53667;BMP280;39568;51.026;5.468;2023-07-28T09:20:34;99947.94;;;21.19
53667;BMP280;39568;51.026;5.468;2023-07-28T09:23:01;99933.25;;;21.00
53667;BMP280;39568;51.026;5.468;2023-07-28T09:25:29;99934.34;;;20.86
53667;BMP280;39568;51.026;5.468;2023-07-28T09:27:56;99937.72;;;20.96
53667;BMP280;39568;51.026;5.468;2023-07-28T09:30:25;99940.31;;;20.84
53667;BMP280;39568;51.026;5.468;2023-07-28T09:32:53;99942.41;;;20.95
53667;BMP280;39568;51.026;5.468;2023-07-28T09:35:20;99936.34;;;21.07
53667;BMP280;39568;51.026;5.468;2023-07-28T09:37:49;99945.66;;;21.36
53667;BMP280;39568;51.026;5.468;2023-07-28T09:40:17;99952.88;;;21.76
53667;BMP280;39568;51.026;5.468;2023-07-28T09:42:46;99944.59;;;22.18
53667;BMP280;39568;51.026;5.468;2023-07-28T09:45:15;99948.19;;;22.80
53667;BMP280;39568;51.026;5.468;2023-07-28T09:47:44;99947.88;;;24.00
53667;BMP280;39568;51.026;5.468;2023-07-28T09:50:13;99948.41;;;25.23
53667;BMP280;39568;51.026;5.468;2023-07-28T09:52:42;99942.63;;;24.04
53667;BMP280;39568;51.026;5.468;2023-07-28T09:55:10;99945.84;;;23.87
53667;BMP280;39568;51.026;5.468;2023-07-28T09:57:41;99952.50;;;23.59
53667;BMP280;39568;51.026;5.468;2023-07-28T10:00:13;99952.13;;;23.39
53667;BMP280;39568;51.026;5.468;2023-07-28T10:02:42;99946.09;;;23.16
53667;BMP280;39568;51.026;5.468;2023-07-28T10:05:09;99949.16;;;22.73
53667;BMP280;39568;51.026;5.468;2023-07-28T10:07:38;99955.06;;;22.35
53667;BMP280;39568;51.026;5.468;2023-07-28T10:10:07;99942.59;;;22.07
53667;BMP280;39568;51.026;5.468;2023-07-28T10:12:40;99949.28;;;22.06
53667;BMP280;39568;51.026;5.468;2023-07-28T10:15:09;99958.97;;;22.09
53667;BMP280;39568;51.026;5.468;2023-07-28T10:17:43;99954.88;;;22.31
53667;BMP280;39568;51.026;5.468;2023-07-28T10:20:28;99953.53;;;23.15
53667;BMP280;39568;51.026;5.468;2023-07-28T10:23:02;99958.34;;;23.92
53667;BMP280;39568;51.026;5.468;2023-07-28T10:25:32;99959.84;;;23.95
53667;BMP280;39568;51.026;5.468;2023-07-28T10:27:59;99952.41;;;23.96
53667;BMP280;39568;51.026;5.468;2023-07-28T10:30:25;99952.31;;;24.61
53667;BMP280;39568;51.026;5.468;2023-07-28T10:32:55;99951.13;;;24.37
53667;BMP280;39568;51.026;5.468;2023-07-28T10:35:24;99958.78;;;24.54
53667;BMP280;39568;51.026;5.468;2023-07-28T10:37:53;99957.16;;;24.22
53667;BMP280;39568;51.026;5.468;2023-07-28T10:40:23;99965.44;;;23.72
53667;BMP280;39568;51.026;5.468;2023-07-28T10:42:51;99956.66;;;23.60
53667;BMP280;39568;51.026;5.468;2023-07-28T10:45:17;99959.97;;;23.33
53667;BMP280;39568;51.026;5.468;2023-07-28T10:47:45;99955.13;;;23.32
53667;BMP280;39568;51.026;5.468;2023-07-28T10:50:14;99955.03;;;23.30
53667;BMP280;39568;51.026;5.468;2023-07-28T10:52:42;99960.44;;;23.94
53667;BMP280;39568;51.026;5.468;2023-07-28T10:55:13;99963.88;;;24.75
53667;BMP280;39568;51.026;5.468;2023-07-28T10:57:41;99962.44;;;24.88
53667;BMP280;39568;51.026;5.468;2023-07-28T11:00:10;99954.94;;;24.32
53667;BMP280;39568;51.026;5.468;2023-07-28T11:02:39;99940.13;;;24.35
53667;BMP280;39568;51.026;5.468;2023-07-28T11:05:10;99956.09;;;23.75
53667;BMP280;39568;51.026;5.468;2023-07-28T11:07:40;99954.34;;;23.43
53667;BMP280;39568;51.026;5.468;2023-07-28T11:10:08;99959.50;;;23.25
53667;BMP280;39568;51.026;5.468;2023-07-28T11:12:39;99962.97;;;23.14
53667;BMP280;39568;51.026;5.468;2023-07-28T11:15:08;99964.25;;;22.07
53667;BMP280;39568;51.026;5.468;2023-07-28T11:17:36;99967.91;;;21.14
53667;BMP280;39568;51.026;5.468;2023-07-28T11:20:04;99968.41;;;21.00
53667;BMP280;39568;51.026;5.468;2023-07-28T11:22:36;99967.22;;;20.82
53667;BMP280;39568;51.026;5.468;2023-07-28T11:25:08;99971.31;;;20.62
53667;BMP280;39568;51.026;5.468;2023-07-28T11:27:36;99966.69;;;20.74
53667;BMP280;39568;51.026;5.468;2023-07-28T11:30:03;99958.31;;;20.70
53667;BMP280;39568;51.026;5.468;2023-07-28T11:32:30;99961.47;;;20.67
53667;BMP280;39568;51.026;5.468;2023-07-28T11:35:03;99973.63;;;20.56
53667;BMP280;39568;51.026;5.468;2023-07-28T11:37:30;99966.25;;;20.47
53667;BMP280;39568;51.026;5.468;2023-07-28T11:39:59;99968.56;;;20.41
53667;BMP280;39568;51.026;5.468;2023-07-28T11:42:27;99969.13;;;20.80
53667;BMP280;39568;51.026;5.468;2023-07-28T11:44:55;99972.38;;;20.78
53667;BMP280;39568;51.026;5.468;2023-07-28T11:47:22;99976.78;;;21.05
53667;BMP280;39568;51.026;5.468;2023-07-28T11:49:49;99976.56;;;21.22
53667;BMP280;39568;51.026;5.468;2023-07-28T11:52:16;99974.78;;;21.26
53667;BMP280;39568;51.026;5.468;2023-07-28T11:54:43;99974.53;;;21.01
53667;BMP280;39568;51.026;5.468;2023-07-28T11:57:12;99970.84;;;20.96
53667;BMP280;39568;51.026;5.468;2023-07-28T11:59:40;99971.63;;;20.87
53667;BMP280;39568;51.026;5.468;2023-07-28T12:02:07;99972.81;;;21.06
53667;BMP280;39568;51.026;5.468;2023-07-28T12:04:36;99975.75;;;21.31
53667;BMP280;39568;51.026;5.468;2023-07-28T12:07:07;99969.56;;;21.61
53667;BMP280;39568;51.026;5.468;2023-07-28T12:09:50;99965.28;;;21.58
53667;BMP280;39568;51.026;5.468;2023-07-28T12:12:19;99964.88;;;21.40
53667;BMP280;39568;51.026;5.468;2023-07-28T12:14:48;99963.47;;;21.51
53667;BMP280;39568;51.026;5.468;2023-07-28T12:17:17;99968.94;;;21.30
53667;BMP280;39568;51.026;5.468;2023-07-28T12:19:56;99962.13;;;21.29
53667;BMP280;39568;51.026;5.468;2023-07-28T12:22:22;99962.53;;;21.79
53667;BMP280;39568;51.026;5.468;2023-07-28T12:24:49;99970.63;;;22.23
53667;BMP280;39568;51.026;5.468;2023-07-28T12:27:16;99972.41;;;22.42
53667;BMP280;39568;51.026;5.468;2023-07-28T12:29:42;99974.63;;;22.34
53667;BMP280;39568;51.026;5.468;2023-07-28T12:32:10;99972.94;;;21.94
53667;BMP280;39568;51.026;5.468;2023-07-28T12:34:37;99974.63;;;21.78
53667;BMP280;39568;51.026;5.468;2023-07-28T12:37:05;99978.38;;;21.61
53667;BMP280;39568;51.026;5.468;2023-07-28T12:39:33;99977.31;;;21.34
53667;BMP280;39568;51.026;5.468;2023-07-28T12:42:00;99975.44;;;21.57
53667;BMP280;39568;51.026;5.468;2023-07-28T12:44:27;99980.78;;;21.04
53667;BMP280;39568;51.026;5.468;2023-07-28T12:46:53;99984.31;;;20.85
53667;BMP280;39568;51.026;5.468;2023-07-28T12:49:21;99973.44;;;21.37
53667;BMP280;39568;51.026;5.468;2023-07-28T12:51:48;99985.38;;;21.76
53667;BMP280;39568;51.026;5.468;2023-07-28T12:54:15;99987.59;;;22.35
53667;BMP280;39568;51.026;5.468;2023-07-28T12:56:42;99980.34;;;23.09
53667;BMP280;39568;51.026;5.468;2023-07-28T12:59:08;99983.59;;;23.95
53667;BMP280;39568;51.026;5.468;2023-07-28T13:01:37;99972.44;;;24.56
53667;BMP280;39568;51.026;5.468;2023-07-28T13:04:04;99978.88;;;24.63
53667;BMP280;39568;51.026;5.468;2023-07-28T13:06:32;99975.31;;;24.31
53667;BMP280;39568;51.026;5.468;2023-07-28T13:08:58;99977.81;;;23.75
53667;BMP280;39568;51.026;5.468;2023-07-28T13:11:25;99977.28;;;23.40
53667;BMP280;39568;51.026;5.468;2023-07-28T13:13:52;99986.16;;;23.29
53667;BMP280;39568;51.026;5.468;2023-07-28T13:16:19;99985.06;;;23.09
53667;BMP280;39568;51.026;5.468;2023-07-28T13:18:45;99979.00;;;23.22
53667;BMP280;39568;51.026;5.468;2023-07-28T13:21:12;99983.03;;;23.21
53667;BMP280;39568;51.026;5.468;2023-07-28T13:23:40;99986.50;;;23.35
53667;BMP280;39568;51.026;5.468;2023-07-28T13:26:07;99981.88;;;23.01
53667;BMP280;39568;51.026;5.468;2023-07-28T13:28:34;99987.19;;;23.10
53667;BMP280;39568;51.026;5.468;2023-07-28T13:31:01;99987.75;;;23.70
53667;BMP280;39568;51.026;5.468;2023-07-28T13:33:28;99986.19;;;24.45
53667;BMP280;39568;51.026;5.468;2023-07-28T13:35:55;99987.44;;;24.71
53667;BMP280;39568;51.026;5.468;2023-07-28T13:38:22;99987.28;;;25.10
53667;BMP280;39568;51.026;5.468;2023-07-28T13:40:50;99978.59;;;24.43
53667;BMP280;39568;51.026;5.468;2023-07-28T13:43:17;99981.53;;;24.07
53667;BMP280;39568;51.026;5.468;2023-07-28T13:45:44;99990.09;;;23.76
53667;BMP280;39568;51.026;5.468;2023-07-28T13:48:10;99989.63;;;23.18
53667;BMP280;39568;51.026;5.468;2023-07-28T13:50:37;99997.25;;;22.84
53667;BMP280;39568;51.026;5.468;2023-07-28T13:53:04;99995.59;;;22.33
53667;BMP280;39568;51.026;5.468;2023-07-28T13:55:30;99992.66;;;22.29
53667;BMP280;39568;51.026;5.468;2023-07-28T13:57:58;99992.34;;;22.35
53667;BMP280;39568;51.026;5.468;2023-07-28T14:00:25;99987.00;;;22.48
53667;BMP280;39568;51.026;5.468;2023-07-28T14:02:52;99976.47;;;23.01
53667;BMP280;39568;51.026;5.468;2023-07-28T14:05:18;99978.44;;;23.87
53667;BMP280;39568;51.026;5.468;2023-07-28T14:07:46;99967.34;;;25.34
53667;BMP280;39568;51.026;5.468;2023-07-28T14:10:12;99959.88;;;26.28